sensor_id;sensor_type;location;lat;lon;timestamp;pressure;altitude;pressure_sealevel;temperature;humidity
3122;BME280;1571;52.524;14.104;2023-04-25T00:00:00;99976.13;;;7.68;88.76
3122;BME280;1571;52.524;14.104;2023-04-25T00:02:38;99980.16;;;7.45;89.49
3122;BME280;1571;52.524;14.104;2023-04-25T00:05:07;99979.25;;;7.46;89.76
3122;BME280;1571;52.524;14.104;2023-04-25T00:07:36;99979.81;;;7.37;90.34
3122;BME280;1571;52.524;14.104;2023-04-25T00:10:05;99976.84;;;7.27;90.99
3122;BME280;1571;52.524;14.104;2023-04-25T00:12:34;99978.50;;;7.29;91.43
3122;BME280;1571;52.524;14.104;2023-04-25T00:15:05;99982.81;;;7.59;91.40
3122;BME280;1571;52.524;14.104;2023-04-25T00:17:33;99989.59;;;7.49;90.97
3122;BME280;1571;52.524;14.104;2023-04-25T00:20:03;99989.50;;;7.36;91.17
3122;BME280;1571;52.524;14.104;2023-04-25T00:22:35;99987.53;;;7.40;91.21
3122;BME280;1571;52.524;14.104;2023-04-25T00:25:06;99984.41;;;7.19;91.85
3122;BME280;1571;52.524;14.104;2023-04-25T00:27:34;99985.25;;;7.34;91.84
3122;BME280;1571;52.524;14.104;2023-04-25T00:30:05;99982.25;;;7.40;92.09
3122;BME280;1571;52.524;14.104;2023-04-25T00:32:34;99984.22;;;7.22;92.22
3122;BME280;1571;52.524;14.104;2023-04-25T00:35:03;99984.13;;;7.23;92.53
3122;BME280;1571;52.524;14.104;2023-04-25T00:37:31;99982.13;;;7.13;92.79
3122;BME280;1571;52.524;14.104;2023-04-25T00:39:59;99994.13;;;7.33;92.91
3122;BME280;1571;52.524;14.104;2023-04-25T00:42:28;99986.22;;;7.18;93.25
3122;BME280;1571;52.524;14.104;2023-04-25T00:44:57;99990.25;;;7.24;93.57
3122;BME280;1571;52.524;14.104;2023-04-25T00:47:27;99994.13;;;7.18;93.37
3122;BME280;1571;52.524;14.104;2023-04-25T00:49:56;99990.19;;;7.25;93.41
3122;BME280;1571;52.524;14.104;2023-04-25T00:52:25;99986.94;;;7.06;93.59
3122;BME280;1571;52.524;14.104;2023-04-25T00:54:53;99985.25;;;7.19;93.97
3122;BME280;1571;52.524;14.104;2023-04-25T00:57:21;99994.69;;;7.23;93.48
3122;BME280;1571;52.524;14.104;2023-04-25T00:59:50;99991.19;;;7.08;93.41
3122;BME280;1571;52.524;14.104;2023-04-25T01:02:20;99985.47;;;6.86;94.15
3122;BME280;1571;52.524;14.104;2023-04-25T01:04:50;99989.72;;;6.88;94.35
3122;BME280;1571;52.524;14.104;2023-04-25T01:07:18;99982.78;;;7.02;94.39
3122;BME280;1571;52.524;14.104;2023-04-25T01:09:47;99978.63;;;6.98;94.10
3122;BME280;1571;52.524;14.104;2023-04-25T01:12:15;99985.31;;;6.89;94.50
3122;BME280;1571;52.524;14.104;2023-04-25T01:14:43;99978.50;;;6.85;94.22
3122;BME280;1571;52.524;14.104;2023-04-25T01:17:12;99978.25;;;7.04;94.46
3122;BME280;1571;52.524;14.104;2023-04-25T01:19:40;99967.09;;;6.84;94.22
3122;BME280;1571;52.524;14.104;2023-04-25T01:22:10;99970.69;;;6.83;94.04
3122;BME280;1571;52.524;14.104;2023-04-25T01:24:38;99977.63;;;6.84;94.30
3122;BME280;1571;52.524;14.104;2023-04-25T01:27:06;99976.25;;;6.93;94.24
3122;BME280;1571;52.524;14.104;2023-04-25T01:29:35;99972.25;;;6.72;94.15
3122;BME280;1571;52.524;14.104;2023-04-25T01:32:05;99977.19;;;6.92;93.69
3122;BME280;1571;52.524;14.104;2023-04-25T01:34:33;99967.28;;;6.96;93.54
3122;BME280;1571;52.524;14.104;2023-04-25T01:37:02;99970.75;;;6.82;93.51
3122;BME280;1571;52.524;14.104;2023-04-25T01:39:31;99971.66;;;6.97;93.33
3122;BME280;1571;52.524;14.104;2023-04-25T01:42:00;99970.88;;;6.95;92.90
3122;BME280;1571;52.524;14.104;2023-04-25T01:44:29;99976.84;;;7.13;92.42
3122;BME280;1571;52.524;14.104;2023-04-25T01:46:58;99974.97;;;7.15;92.12
3122;BME280;1571;52.524;14.104;2023-04-25T01:49:27;99979.22;;;7.17;91.96
3122;BME280;1571;52.524;14.104;2023-04-25T01:51:56;99970.53;;;7.15;91.69
3122;BME280;1571;52.524;14.104;2023-04-25T01:54:25;99975.66;;;7.18;92.15
3122;BME280;1571;52.524;14.104;2023-04-25T01:56:56;99968.94;;;7.27;92.03
3122;BME280;1571;52.524;14.104;2023-04-25T01:59:25;99969.25;;;7.37;91.20
3122;BME280;1571;52.524;14.104;2023-04-25T02:02:11;99978.56;;;7.28;91.60
3122;BME280;1571;52.524;14.104;2023-04-25T02:04:40;99978.88;;;7.52;91.44
3122;BME280;1571;52.524;14.104;2023-04-25T02:07:09;99982.16;;;7.41;91.40
3122;BME280;1571;52.524;14.104;2023-04-25T02:09:46;99986.19;;;7.47;90.80
3122;BME280;1571;52.524;14.104;2023-04-25T02:12:17;99976.97;;;7.54;90.20
3122;BME280;1571;52.524;14.104;2023-04-25T02:15:16;99985.06;;;7.51;90.15
3122;BME280;1571;52.524;14.104;2023-04-25T02:17:54;99986.97;;;7.49;90.31
3122;BME280;1571;52.524;14.104;2023-04-25T02:20:23;99986.69;;;7.54;90.23
3122;BME280;1571;52.524;14.104;2023-04-25T02:22:52;99985.63;;;7.56;89.47
3122;BME280;1571;52.524;14.104;2023-04-25T02:25:20;99985.38;;;7.46;89.11
3122;BME280;1571;52.524;14.104;2023-04-25T02:27:50;99985.47;;;7.59;89.54
3122;BME280;1571;52.524;14.104;2023-04-25T02:30:19;99980.75;;;7.50;89.46
3122;BME280;1571;52.524;14.104;2023-04-25T02:32:47;99988.28;;;7.70;89.38
3122;BME280;1571;52.524;14.104;2023-04-25T02:35:15;99979.94;;;7.77;89.15
3122;BME280;1571;52.524;14.104;2023-04-25T02:37:44;99981.75;;;7.76;88.82
3122;BME280;1571;52.524;14.104;2023-04-25T02:40:13;99983.63;;;7.74;88.98
3122;BME280;1571;52.524;14.104;2023-04-25T02:42:41;99981.75;;;7.76;88.39
3122;BME280;1571;52.524;14.104;2023-04-25T02:45:11;99985.63;;;7.56;88.80
3122;BME280;1571;52.524;14.104;2023-04-25T02:47:39;99977.59;;;7.86;88.88
3122;BME280;1571;52.524;14.104;2023-04-25T02:50:07;99977.13;;;7.80;88.73
3122;BME280;1571;52.524;14.104;2023-04-25T02:52:36;99975.28;;;7.95;88.36
3122;BME280;1571;52.524;14.104;2023-04-25T02:55:21;99976.66;;;7.59;88.49
3122;BME280;1571;52.524;14.104;2023-04-25T02:57:52;99981.09;;;7.87;88.30
3122;BME280;1571;52.524;14.104;2023-04-25T03:00:36;99982.41;;;7.80;88.44
3122;BME280;1571;52.524;14.104;2023-04-25T03:03:04;99969.97;;;7.82;88.57
3122;BME280;1571;52.524;14.104;2023-04-25T03:05:33;99986.00;;;7.79;89.43
3122;BME280;1571;52.524;14.104;2023-04-25T03:08:01;99979.41;;;7.71;88.75
3122;BME280;1571;52.524;14.104;2023-04-25T03:10:31;99977.72;;;7.70;88.36
3122;BME280;1571;52.524;14.104;2023-04-25T03:13:04;99979.94;;;7.77;88.46
3122;BME280;1571;52.524;14.104;2023-04-25T03:15:32;99972.59;;;7.67;88.16
3122;BME280;1571;52.524;14.104;2023-04-25T03:18:03;99974.50;;;7.65;88.39
3122;BME280;1571;52.524;14.104;2023-04-25T03:20:31;99965.81;;;7.78;87.82
3122;BME280;1571;52.524;14.104;2023-04-25T03:22:59;99969.56;;;7.88;87.73
3122;BME280;1571;52.524;14.104;2023-04-25T03:25:29;99952.94;;;8.00;87.07
3122;BME280;1571;52.524;14.104;2023-04-25T03:27:58;99957.97;;;7.76;86.87
3122;BME280;1571;52.524;14.104;2023-04-25T03:30:26;99956.06;;;7.92;86.81
3122;BME280;1571;52.524;14.104;2023-04-25T03:32:54;99962.97;;;7.81;86.63
3122;BME280;1571;52.524;14.104;2023-04-25T03:35:24;99961.28;;;7.80;86.65
3122;BME280;1571;52.524;14.104;2023-04-25T03:37:52;99965.44;;;7.84;86.63
3122;BME280;1571;52.524;14.104;2023-04-25T03:40:26;99968.72;;;7.87;86.16
3122;BME280;1571;52.524;14.104;2023-04-25T03:43:29;99965.59;;;7.95;85.44
3122;BME280;1571;52.524;14.104;2023-04-25T03:46:03;99964.19;;;7.89;85.96
3122;BME280;1571;52.524;14.104;2023-04-25T03:48:31;99975.78;;;7.87;85.90
3122;BME280;1571;52.524;14.104;2023-04-25T03:51:01;99970.31;;;7.90;85.91
3122;BME280;1571;52.524;14.104;2023-04-25T03:53:31;99975.13;;;7.83;85.53
3122;BME280;1571;52.524;14.104;2023-04-25T03:56:24;99978.44;;;7.87;85.69
3122;BME280;1571;52.524;14.104;2023-04-25T03:59:00;99979.19;;;7.89;85.78
3122;BME280;1571;52.524;14.104;2023-04-25T04:01:29;99969.72;;;7.99;85.37
3122;BME280;1571;52.524;14.104;2023-04-25T04:03:58;99980.28;;;7.99;85.16
3122;BME280;1571;52.524;14.104;2023-04-25T04:06:28;99971.44;;;8.00;84.77
3122;BME280;1571;52.524;14.104;2023-04-25T04:09:03;99981.47;;;7.95;85.21
3122;BME280;1571;52.524;14.104;2023-04-25T04:11:36;99986.53;;;7.98;84.64
3122;BME280;1571;52.524;14.104;2023-04-25T04:14:05;99979.56;;;7.97;84.55
3122;BME280;1571;52.524;14.104;2023-04-25T04:16:35;99985.63;;;7.85;84.92
3122;BME280;1571;52.524;14.104;2023-04-25T04:19:03;99991.91;;;7.97;84.83
3122;BME280;1571;52.524;14.104;2023-04-25T04:21:34;99989.75;;;7.89;84.67
3122;BME280;1571;52.524;14.104;2023-04-25T04:24:03;99991.84;;;7.84;84.81
3122;BME280;1571;52.524;14.104;2023-04-25T04:26:42;99997.91;;;7.86;85.30
3122;BME280;1571;52.524;14.104;2023-04-25T04:29:30;100004.66;;;7.90;85.46
3122;BME280;1571;52.524;14.104;2023-04-25T04:32:07;100004.50;;;7.93;85.14
3122;BME280;1571;52.524;14.104;2023-04-25T04:34:36;100009.09;;;7.89;85.15
3122;BME280;1571;52.524;14.104;2023-04-25T04:37:07;100004.88;;;7.87;85.37
3122;BME280;1571;52.524;14.104;2023-04-25T04:39:36;100006.94;;;7.96;85.16
3122;BME280;1571;52.524;14.104;2023-04-25T04:42:12;100010.03;;;8.03;85.15
3122;BME280;1571;52.524;14.104;2023-04-25T04:45:00;100013.53;;;8.03;85.63
3122;BME280;1571;52.524;14.104;2023-04-25T04:47:44;100009.28;;;8.15;84.91
3122;BME280;1571;52.524;14.104;2023-04-25T04:50:32;100004.88;;;8.28;84.00
3122;BME280;1571;52.524;14.104;2023-04-25T04:53:20;100015.19;;;8.19;83.73
3122;BME280;1571;52.524;14.104;2023-04-25T04:56:21;100005.22;;;8.09;84.27
3122;BME280;1571;52.524;14.104;2023-04-25T04:59:00;100010.50;;;8.09;84.26
3122;BME280;1571;52.524;14.104;2023-04-25T05:01:40;100002.34;;;8.27;84.15
3122;BME280;1571;52.524;14.104;2023-04-25T05:04:08;100005.91;;;8.26;84.22
3122;BME280;1571;52.524;14.104;2023-04-25T05:06:49;100002.63;;;8.22;84.02
3122;BME280;1571;52.524;14.104;2023-04-25T05:09:43;100002.22;;;8.43;83.60
3122;BME280;1571;52.524;14.104;2023-04-25T05:12:30;100013.97;;;8.24;83.94
3122;BME280;1571;52.524;14.104;2023-04-25T05:15:11;100015.88;;;8.35;83.67
3122;BME280;1571;52.524;14.104;2023-04-25T05:18:00;100015.72;;;8.38;83.12
3122;BME280;1571;52.524;14.104;2023-04-25T05:20:54;100024.25;;;8.29;83.39
3122;BME280;1571;52.524;14.104;2023-04-25T05:23:36;100024.78;;;8.34;83.75
3122;BME280;1571;52.524;14.104;2023-04-25T05:26:13;100018.59;;;8.21;84.60
3122;BME280;1571;52.524;14.104;2023-04-25T05:29:01;100026.44;;;8.22;84.61
3122;BME280;1571;52.524;14.104;2023-04-25T05:31:37;100024.09;;;8.18;84.38
3122;BME280;1571;52.524;14.104;2023-04-25T05:34:12;100030.47;;;8.28;84.07
3122;BME280;1571;52.524;14.104;2023-04-25T05:36:48;100034.25;;;8.24;84.71
3122;BME280;1571;52.524;14.104;2023-04-25T05:39:16;100028.16;;;8.50;83.89
3122;BME280;1571;52.524;14.104;2023-04-25T05:42:04;100028.06;;;8.52;83.45
3122;BME280;1571;52.524;14.104;2023-04-25T05:44:44;100036.75;;;8.54;83.19
3122;BME280;1571;52.524;14.104;2023-04-25T05:47:28;100038.88;;;8.62;83.78
3122;BME280;1571;52.524;14.104;2023-04-25T05:50:10;100043.44;;;8.60;82.89
3122;BME280;1571;52.524;14.104;2023-04-25T05:52:54;100043.56;;;8.71;82.69
3122;BME280;1571;52.524;14.104;2023-04-25T05:55:35;100037.53;;;8.69;82.85
3122;BME280;1571;52.524;14.104;2023-04-25T05:58:19;100035.25;;;8.77;83.08
3122;BME280;1571;52.524;14.104;2023-04-25T06:00:48;100042.66;;;8.72;82.79
3122;BME280;1571;52.524;14.104;2023-04-25T06:03:17;100046.97;;;8.73;82.73
3122;BME280;1571;52.524;14.104;2023-04-25T06:05:48;100043.56;;;8.71;82.35
3122;BME280;1571;52.524;14.104;2023-04-25T06:08:16;100052.66;;;8.67;82.46
3122;BME280;1571;52.524;14.104;2023-04-25T06:10:44;100048.25;;;8.80;82.20
3122;BME280;1571;52.524;14.104;2023-04-25T06:13:13;100049.97;;;8.81;81.67
3122;BME280;1571;52.524;14.104;2023-04-25T06:15:43;100046.41;;;8.95;81.89
3122;BME280;1571;52.524;14.104;2023-04-25T06:18:12;100044.50;;;8.97;81.79
3122;BME280;1571;52.524;14.104;2023-04-25T06:20:40;100051.47;;;8.85;81.79
3122;BME280;1571;52.524;14.104;2023-04-25T06:23:09;100050.13;;;8.92;81.81
3122;BME280;1571;52.524;14.104;2023-04-25T06:25:51;100051.78;;;8.93;81.05
3122;BME280;1571;52.524;14.104;2023-04-25T06:28:20;100053.16;;;8.86;80.73
3122;BME280;1571;52.524;14.104;2023-04-25T06:30:51;100050.66;;;8.98;80.64
3122;BME280;1571;52.524;14.104;2023-04-25T06:33:20;100063.56;;;8.89;81.26
3122;BME280;1571;52.524;14.104;2023-04-25T06:35:49;100051.75;;;9.08;80.14
3122;BME280;1571;52.524;14.104;2023-04-25T06:38:22;100046.88;;;9.14;80.26
3122;BME280;1571;52.524;14.104;2023-04-25T06:40:52;100045.09;;;9.28;79.43
3122;BME280;1571;52.524;14.104;2023-04-25T06:43:21;100054.28;;;9.22;79.47
3122;BME280;1571;52.524;14.104;2023-04-25T06:46:05;100049.75;;;9.24;79.90
3122;BME280;1571;52.524;14.104;2023-04-25T06:48:41;100052.72;;;9.32;80.42
3122;BME280;1571;52.524;14.104;2023-04-25T06:51:10;100050.81;;;9.34;79.57
3122;BME280;1571;52.524;14.104;2023-04-25T06:53:40;100059.81;;;9.19;79.65
3122;BME280;1571;52.524;14.104;2023-04-25T06:56:15;100060.56;;;9.21;80.00
3122;BME280;1571;52.524;14.104;2023-04-25T06:58:55;100057.03;;;9.21;80.00
3122;BME280;1571;52.524;14.104;2023-04-25T07:01:30;100058.09;;;9.05;80.30
3122;BME280;1571;52.524;14.104;2023-04-25T07:04:00;100071.34;;;9.18;80.75
3122;BME280;1571;52.524;14.104;2023-04-25T07:06:31;100062.47;;;9.19;80.59
3122;BME280;1571;52.524;14.104;2023-04-25T07:08:59;100065.09;;;9.19;80.87
3122;BME280;1571;52.524;14.104;2023-04-25T07:11:28;100071.91;;;9.23;80.02
3122;BME280;1571;52.524;14.104;2023-04-25T07:13:56;100074.00;;;9.18;80.73
3122;BME280;1571;52.524;14.104;2023-04-25T07:16:25;100068.53;;;9.47;80.35
3122;BME280;1571;52.524;14.104;2023-04-25T07:18:54;100077.63;;;9.43;80.59
3122;BME280;1571;52.524;14.104;2023-04-25T07:21:23;100074.25;;;9.53;79.99
3122;BME280;1571;52.524;14.104;2023-04-25T07:23:53;100069.78;;;9.54;79.71
3122;BME280;1571;52.524;14.104;2023-04-25T07:26:26;100082.09;;;9.68;79.95
3122;BME280;1571;52.524;14.104;2023-04-25T07:29:15;100068.09;;;9.40;79.84
3122;BME280;1571;52.524;14.104;2023-04-25T07:31:44;100076.13;;;9.38;79.94
3122;BME280;1571;52.524;14.104;2023-04-25T07:34:14;100077.84;;;9.40;79.24
3122;BME280;1571;52.524;14.104;2023-04-25T07:36:43;100085.13;;;9.36;79.52
3122;BME280;1571;52.524;14.104;2023-04-25T07:39:12;100084.41;;;9.47;79.36
3122;BME280;1571;52.524;14.104;2023-04-25T07:41:41;100082.22;;;9.66;79.28
3122;BME280;1571;52.524;14.104;2023-04-25T07:44:14;100088.47;;;9.78;78.61
3122;BME280;1571;52.524;14.104;2023-04-25T07:46:43;100087.19;;;9.58;78.39
3122;BME280;1571;52.524;14.104;2023-04-25T07:49:11;100084.00;;;9.53;79.01
3122;BME280;1571;52.524;14.104;2023-04-25T07:51:44;100103.72;;;9.49;79.81
3122;BME280;1571;52.524;14.104;2023-04-25T07:54:16;100108.91;;;9.50;79.50
3122;BME280;1571;52.524;14.104;2023-04-25T07:56:50;100099.91;;;9.53;79.93
3122;BME280;1571;52.524;14.104;2023-04-25T07:59:25;100109.63;;;9.40;79.67
3122;BME280;1571;52.524;14.104;2023-04-25T08:01:57;100106.47;;;9.47;79.78
3122;BME280;1571;52.524;14.104;2023-04-25T08:04:25;100114.19;;;9.37;79.87
3122;BME280;1571;52.524;14.104;2023-04-25T08:07:03;100116.13;;;9.08;80.78
3122;BME280;1571;52.524;14.104;2023-04-25T08:09:39;100134.75;;;9.07;81.67
3122;BME280;1571;52.524;14.104;2023-04-25T08:12:14;100131.94;;;9.23;81.71
3122;BME280;1571;52.524;14.104;2023-04-25T08:14:43;100134.75;;;9.07;81.70
3122;BME280;1571;52.524;14.104;2023-04-25T08:17:11;100139.81;;;8.97;81.72
3122;BME280;1571;52.524;14.104;2023-04-25T08:19:41;100141.81;;;8.93;82.17
3122;BME280;1571;52.524;14.104;2023-04-25T08:22:18;100144.22;;;8.84;82.43
3122;BME280;1571;52.524;14.104;2023-04-25T08:24:53;100151.03;;;8.73;83.55
3122;BME280;1571;52.524;14.104;2023-04-25T08:27:21;100154.94;;;8.68;83.76
3122;BME280;1571;52.524;14.104;2023-04-25T08:29:51;100158.69;;;8.78;83.66
3122;BME280;1571;52.524;14.104;2023-04-25T08:32:20;100149.94;;;8.63;84.00
3122;BME280;1571;52.524;14.104;2023-04-25T08:35:06;100144.56;;;8.65;84.36
3122;BME280;1571;52.524;14.104;2023-04-25T08:37:36;100155.84;;;8.67;85.04
3122;BME280;1571;52.524;14.104;2023-04-25T08:40:12;100163.38;;;8.60;86.21
3122;BME280;1571;52.524;14.104;2023-04-25T08:42:55;100161.56;;;8.46;87.35
3122;BME280;1571;52.524;14.104;2023-04-25T08:45:26;100159.13;;;8.29;87.96
3122;BME280;1571;52.524;14.104;2023-04-25T08:47:57;100163.63;;;8.12;88.91
3122;BME280;1571;52.524;14.104;2023-04-25T08:50:25;100158.44;;;8.25;89.71
3122;BME280;1571;52.524;14.104;2023-04-25T08:52:58;100161.97;;;8.40;90.23
3122;BME280;1571;52.524;14.104;2023-04-25T08:55:29;100166.47;;;8.52;90.53
3122;BME280;1571;52.524;14.104;2023-04-25T08:57:59;100161.06;;;8.83;89.58
3122;BME280;1571;52.524;14.104;2023-04-25T09:00:29;100161.81;;;9.12;88.58
3122;BME280;1571;52.524;14.104;2023-04-25T09:02:59;100175.91;;;9.25;86.47
3122;BME280;1571;52.524;14.104;2023-04-25T09:05:32;100171.06;;;9.32;85.88
3122;BME280;1571;52.524;14.104;2023-04-25T09:08:02;100179.31;;;9.27;85.63
3122;BME280;1571;52.524;14.104;2023-04-25T09:10:30;100166.91;;;9.55;83.28
3122;BME280;1571;52.524;14.104;2023-04-25T09:13:05;100178.91;;;9.33;82.58
3122;BME280;1571;52.524;14.104;2023-04-25T09:15:47;100178.59;;;9.78;82.03
3122;BME280;1571;52.524;14.104;2023-04-25T09:18:37;100173.50;;;10.00;80.49
3122;BME280;1571;52.524;14.104;2023-04-25T09:21:07;100172.88;;;10.10;79.11
3122;BME280;1571;52.524;14.104;2023-04-25T09:23:46;100175.22;;;9.89;78.42
3122;BME280;1571;52.524;14.104;2023-04-25T09:26:18;100181.34;;;9.89;78.48
3122;BME280;1571;52.524;14.104;2023-04-25T09:28:47;100187.69;;;9.74;78.04
3122;BME280;1571;52.524;14.104;2023-04-25T09:31:21;100182.78;;;9.55;77.38
3122;BME280;1571;52.524;14.104;2023-04-25T09:33:58;100198.25;;;9.48;77.32
3122;BME280;1571;52.524;14.104;2023-04-25T09:36:30;100191.91;;;9.51;78.11
3122;BME280;1571;52.524;14.104;2023-04-25T09:39:17;100205.31;;;9.88;79.15
3122;BME280;1571;52.524;14.104;2023-04-25T09:41:53;100195.75;;;10.75;77.47
3122;BME280;1571;52.524;14.104;2023-04-25T09:44:23;100194.94;;;11.22;76.06
3122;BME280;1571;52.524;14.104;2023-04-25T09:46:52;100180.81;;;11.22;73.69
3122;BME280;1571;52.524;14.104;2023-04-25T09:49:25;100190.41;;;11.12;75.74
3122;BME280;1571;52.524;14.104;2023-04-25T09:52:00;100183.66;;;11.19;72.72
3122;BME280;1571;52.524;14.104;2023-04-25T09:54:40;100178.56;;;10.68;69.19
3122;BME280;1571;52.524;14.104;2023-04-25T09:57:14;100186.59;;;10.79;67.79
3122;BME280;1571;52.524;14.104;2023-04-25T09:59:44;100183.34;;;10.62;66.42
3122;BME280;1571;52.524;14.104;2023-04-25T10:02:14;100182.97;;;10.80;66.75
3122;BME280;1571;52.524;14.104;2023-04-25T10:04:48;100182.22;;;11.15;65.76
3122;BME280;1571;52.524;14.104;2023-04-25T10:07:23;100194.41;;;11.41;64.00
3122;BME280;1571;52.524;14.104;2023-04-25T10:09:59;100193.84;;;11.25;63.75
3122;BME280;1571;52.524;14.104;2023-04-25T10:12:28;100189.78;;;11.32;63.02
3122;BME280;1571;52.524;14.104;2023-04-25T10:14:58;100205.03;;;10.93;63.41
3122;BME280;1571;52.524;14.104;2023-04-25T10:17:28;100198.31;;;10.76;63.89
3122;BME280;1571;52.524;14.104;2023-04-25T10:19:57;100209.25;;;11.09;63.32
3122;BME280;1571;52.524;14.104;2023-04-25T10:22:29;100204.38;;;11.02;62.70
3122;BME280;1571;52.524;14.104;2023-04-25T10:25:01;100223.44;;;11.20;62.70
3122;BME280;1571;52.524;14.104;2023-04-25T10:27:31;100222.44;;;10.48;62.64
3122;BME280;1571;52.524;14.104;2023-04-25T10:30:03;100233.81;;;10.50;63.30
3122;BME280;1571;52.524;14.104;2023-04-25T10:32:33;100239.09;;;10.11;64.71
3122;BME280;1571;52.524;14.104;2023-04-25T10:35:12;100236.44;;;10.37;63.75
3122;BME280;1571;52.524;14.104;2023-04-25T10:37:58;100225.94;;;10.48;61.98
3122;BME280;1571;52.524;14.104;2023-04-25T10:40:28;100237.16;;;10.65;61.99
3122;BME280;1571;52.524;14.104;2023-04-25T10:43:33;100248.84;;;10.24;63.02
3122;BME280;1571;52.524;14.104;2023-04-25T10:46:03;100249.97;;;9.94;63.01
3122;BME280;1571;52.524;14.104;2023-04-25T10:48:45;100256.56;;;9.61;63.54
3122;BME280;1571;52.524;14.104;2023-04-25T10:51:17;100263.13;;;9.55;64.68
3122;BME280;1571;52.524;14.104;2023-04-25T10:53:48;100260.69;;;9.79;64.15
3122;BME280;1571;52.524;14.104;2023-04-25T10:56:25;100261.00;;;9.88;63.33
3122;BME280;1571;52.524;14.104;2023-04-25T10:59:04;100254.09;;;9.85;62.83
3122;BME280;1571;52.524;14.104;2023-04-25T11:01:39;100266.63;;;9.56;63.76
3122;BME280;1571;52.524;14.104;2023-04-25T11:04:21;100254.75;;;9.89;63.69
3122;BME280;1571;52.524;14.104;2023-04-25T11:07:00;100262.72;;;10.14;63.08
3122;BME280;1571;52.524;14.104;2023-04-25T11:09:36;100253.19;;;10.25;61.60
3122;BME280;1571;52.524;14.104;2023-04-25T11:12:07;100253.00;;;10.53;62.00
3122;BME280;1571;52.524;14.104;2023-04-25T11:14:36;100261.97;;;11.02;61.85
3122;BME280;1571;52.524;14.104;2023-04-25T11:17:09;100246.69;;;10.80;59.74
3122;BME280;1571;52.524;14.104;2023-04-25T11:19:38;100244.09;;;10.41;58.63
3122;BME280;1571;52.524;14.104;2023-04-25T11:22:06;100254.69;;;10.29;59.21
3122;BME280;1571;52.524;14.104;2023-04-25T11:24:35;100256.56;;;10.27;59.41
3122;BME280;1571;52.524;14.104;2023-04-25T11:27:04;100263.06;;;10.23;59.14
3122;BME280;1571;52.524;14.104;2023-04-25T11:29:34;100267.34;;;10.51;58.90
3122;BME280;1571;52.524;14.104;2023-04-25T11:32:03;100248.66;;;10.52;57.87
3122;BME280;1571;52.524;14.104;2023-04-25T11:34:33;100252.16;;;10.40;57.95
3122;BME280;1571;52.524;14.104;2023-04-25T11:37:02;100269.78;;;10.41;57.99
3122;BME280;1571;52.524;14.104;2023-04-25T11:39:31;100270.84;;;10.51;57.81
3122;BME280;1571;52.524;14.104;2023-04-25T11:41:59;100267.47;;;10.49;56.63
3122;BME280;1571;52.524;14.104;2023-04-25T11:44:29;100260.63;;;10.71;56.41
3122;BME280;1571;52.524;14.104;2023-04-25T11:46:58;100261.63;;;11.07;55.99
3122;BME280;1571;52.524;14.104;2023-04-25T11:49:30;100265.25;;;11.06;55.22
3122;BME280;1571;52.524;14.104;2023-04-25T11:51:59;100261.97;;;10.89;54.41
3122;BME280;1571;52.524;14.104;2023-04-25T11:54:28;100260.06;;;10.91;54.15
3122;BME280;1571;52.524;14.104;2023-04-25T11:56:56;100261.13;;;11.25;54.41
3122;BME280;1571;52.524;14.104;2023-04-25T11:59:25;100260.84;;;11.41;54.06
3122;BME280;1571;52.524;14.104;2023-04-25T12:01:54;100249.97;;;11.33;52.97
3122;BME280;1571;52.524;14.104;2023-04-25T12:04:24;100264.19;;;11.32;52.83
3122;BME280;1571;52.524;14.104;2023-04-25T12:06:54;100259.59;;;11.34;52.37
3122;BME280;1571;52.524;14.104;2023-04-25T12:09:29;100260.59;;;11.33;52.68
3122;BME280;1571;52.524;14.104;2023-04-25T12:11:59;100267.34;;;11.13;52.17
3122;BME280;1571;52.524;14.104;2023-04-25T12:14:31;100285.41;;;10.58;53.20
3122;BME280;1571;52.524;14.104;2023-04-25T12:17:01;100298.22;;;9.86;54.36
3122;BME280;1571;52.524;14.104;2023-04-25T12:19:35;100312.25;;;10.01;54.90
3122;BME280;1571;52.524;14.104;2023-04-25T12:22:18;100311.66;;;9.83;54.79
3122;BME280;1571;52.524;14.104;2023-04-25T12:24:48;100313.78;;;9.78;55.09
3122;BME280;1571;52.524;14.104;2023-04-25T12:27:17;100322.66;;;9.64;54.64
3122;BME280;1571;52.524;14.104;2023-04-25T12:29:53;100324.00;;;9.57;54.86
3122;BME280;1571;52.524;14.104;2023-04-25T12:32:23;100327.88;;;9.78;55.47
3122;BME280;1571;52.524;14.104;2023-04-25T12:34:52;100321.03;;;9.89;55.25
3122;BME280;1571;52.524;14.104;2023-04-25T12:37:20;100326.94;;;9.79;55.03
3122;BME280;1571;52.524;14.104;2023-04-25T12:39:50;100322.97;;;9.72;54.39
3122;BME280;1571;52.524;14.104;2023-04-25T12:42:18;100326.88;;;9.94;54.75
3122;BME280;1571;52.524;14.104;2023-04-25T12:44:47;100317.78;;;9.98;53.91
3122;BME280;1571;52.524;14.104;2023-04-25T12:47:15;100319.50;;;10.12;53.68
3122;BME280;1571;52.524;14.104;2023-04-25T12:49:43;100329.25;;;10.11;53.48
3122;BME280;1571;52.524;14.104;2023-04-25T12:52:12;100319.59;;;10.10;53.59
3122;BME280;1571;52.524;14.104;2023-04-25T12:54:40;100316.81;;;10.39;53.39
3122;BME280;1571;52.524;14.104;2023-04-25T12:57:09;100298.66;;;10.58;51.75
3122;BME280;1571;52.524;14.104;2023-04-25T12:59:38;100293.84;;;10.89;50.84
3122;BME280;1571;52.524;14.104;2023-04-25T13:02:06;100296.31;;;10.92;51.06
3122;BME280;1571;52.524;14.104;2023-04-25T13:04:34;100304.03;;;10.95;51.18
3122;BME280;1571;52.524;14.104;2023-04-25T13:07:03;100304.13;;;11.07;51.16
3122;BME280;1571;52.524;14.104;2023-04-25T13:09:32;100298.13;;;10.53;50.84
3122;BME280;1571;52.524;14.104;2023-04-25T13:12:00;100309.19;;;10.47;51.80
3122;BME280;1571;52.524;14.104;2023-04-25T13:14:30;100327.41;;;10.39;51.36
3122;BME280;1571;52.524;14.104;2023-04-25T13:16:58;100330.47;;;10.33;51.66
3122;BME280;1571;52.524;14.104;2023-04-25T13:19:27;100334.63;;;9.97;52.08
3122;BME280;1571;52.524;14.104;2023-04-25T13:21:55;100338.81;;;10.14;52.84
3122;BME280;1571;52.524;14.104;2023-04-25T13:24:24;100336.94;;;10.29;52.35
3122;BME280;1571;52.524;14.104;2023-04-25T13:26:52;100337.72;;;10.69;52.48
3122;BME280;1571;52.524;14.104;2023-04-25T13:29:20;100327.88;;;10.58;50.41
3122;BME280;1571;52.524;14.104;2023-04-25T13:31:50;100324.72;;;11.16;49.09
3122;BME280;1571;52.524;14.104;2023-04-25T13:34:18;100313.81;;;10.82;48.19
3122;BME280;1571;52.524;14.104;2023-04-25T13:36:46;100319.47;;;11.27;48.92
3122;BME280;1571;52.524;14.104;2023-04-25T13:39:14;100314.94;;;11.16;47.72